Time;durP1;ratioP1;P1;durP2;ratioP2;P2;SDS_P1;SDS_P2;PMS_P1;PMS_P2;Temp;Humidity;BMP_temperature;BMP_pressure;BME280_temperature;BME280_humidity;BME280_pressure;Samples;Min_cycle;Max_cycle;Signal;HPM_P1;HPM_P2
2021/08/12 00:01:03;;;;;;;10.55;4.85;;;;;;;17.41;84.88;101617.63;6362489;28;20253;-77
2021/08/12 00:04:17;;;;;;;9.60;4.20;;;;;;;17.33;85.15;101623.53;6362462;28;20384;-77
2021/08/12 00:07:22;;;;;;;15.10;4.60;;;;;;;17.40;84.66;101620.66;6363745;28;20188;-78
2021/08/12 00:10:27;;;;;;;19.38;4.65;;;;;;;17.34;84.99;101608.66;6365508;28;20477;-78
2021/08/12 00:13:31;;;;;;;11.27;5.03;;;;;;;17.35;84.97;101613.13;6368561;28;20210;-77
2021/08/12 00:16:35;;;;;;;14.95;4.85;;;;;;;17.28;85.39;101617.91;6368578;28;20214;-78
2021/08/12 00:19:42;;;;;;;16.90;5.53;;;;;;;17.28;85.12;101612.38;6368419;28;20257;-77
2021/08/12 00:22:48;;;;;;;4.50;4.20;;;;;;;17.31;85.06;101622.09;6368477;28;20190;-77
2021/08/12 00:25:56;;;;;;;9.45;4.60;;;;;;;17.29;85.30;101613.22;6366782;28;20186;-77
2021/08/12 00:29:04;;;;;;;12.13;4.72;;;;;;;17.28;85.44;101619.84;6367495;28;20281;-78
2021/08/12 00:32:09;;;;;;;7.45;4.88;;;;;;;17.24;85.76;101613.97;6348675;28;20426;-77
2021/08/12 00:35:14;;;;;;;25.75;5.35;;;;;;;17.16;85.87;101619.84;6383382;27;20197;-77
2021/08/12 00:38:20;;;;;;;15.52;5.20;;;;;;;17.16;85.82;101619.84;6349228;28;20490;-77
2021/08/12 00:41:27;;;;;;;13.00;5.10;;;;;;;17.16;85.49;101617.09;6348663;28;20208;-77
2021/08/12 00:44:33;;;;;;;19.27;5.03;;;;;;;17.11;86.50;101619.72;6367401;28;20257;-77
2021/08/12 00:47:38;;;;;;;8.63;4.90;;;;;;;17.17;86.09;101616.00;6349543;28;20474;-77
2021/08/12 00:50:47;;;;;;;12.57;4.78;;;;;;;17.13;85.90;101609.28;6349820;28;20221;-77
2021/08/12 00:53:53;;;;;;;8.65;4.85;;;;;;;17.08;85.81;101611.94;6366318;28;20379;-78
2021/08/12 00:56:58;;;;;;;6.82;4.68;;;;;;;17.07;86.10;101610.28;6348711;28;20201;-77
2021/08/12 01:00:07;;;;;;;8.18;4.85;;;;;;;17.06;85.98;101608.59;6348507;28;20354;-77
2021/08/12 01:03:17;;;;;;;10.93;4.63;;;;;;;17.05;85.84;101628.94;6349893;28;20209;-77
2021/08/12 01:06:29;;;;;;;11.43;4.53;;;;;;;17.05;86.31;101620.69;6347653;28;20205;-77
2021/08/12 01:09:46;;;;;;;5.45;4.53;;;;;;;16.98;86.19;101622.72;6366162;28;20189;-78
2021/08/12 01:12:58;;;;;;;8.65;5.22;;;;;;;16.95;86.14;101625.97;6348737;28;20229;-78
2021/08/12 01:16:08;;;;;;;6.75;5.00;;;;;;;16.99;86.05;101624.41;6349096;28;20205;-77
2021/08/12 01:19:35;;;;;;;6.80;4.38;;;;;;;16.87;86.33;101626.34;6348260;28;20272;-77
2021/08/12 01:22:45;;;;;;;7.07;5.10;;;;;;;16.90;85.99;101629.44;6348159;28;20201;-78
2021/08/12 01:25:54;;;;;;;11.77;4.07;;;;;;;16.93;85.89;101625.38;6366279;28;20250;-77
2021/08/12 01:29:04;;;;;;;8.20;4.47;;;;;;;16.95;85.80;101628.72;6348162;28;20206;-78
2021/08/12 01:32:14;;;;;;;12.20;5.15;;;;;;;16.89;86.39;101635.22;6348884;28;20240;-78
2021/08/12 01:35:24;;;;;;;10.13;4.45;;;;;;;16.94;85.83;101640.84;6348882;28;20182;-77
2021/08/12 01:38:31;;;;;;;9.57;4.97;;;;;;;16.87;86.27;101642.88;6366451;28;20182;-78
2021/08/12 01:41:38;;;;;;;13.50;4.53;;;;;;;16.87;86.21;101631.84;6347523;28;20433;-78
2021/08/12 01:44:44;;;;;;;10.32;4.78;;;;;;;16.87;85.76;101627.16;6347285;28;20235;-78
2021/08/12 01:47:51;;;;;;;19.33;5.00;;;;;;;16.88;86.03;101636.28;6347399;28;20448;-77
2021/08/12 01:50:59;;;;;;;7.47;4.50;;;;;;;16.87;85.90;101637.38;6347149;28;20205;-78
2021/08/12 01:54:06;;;;;;;7.18;4.28;;;;;;;16.79;86.28;101635.78;6365083;28;20275;-78
2021/08/12 01:57:15;;;;;;;8.93;4.18;;;;;;;16.80;86.35;101642.13;6347366;28;20198;-78
2021/08/12 02:00:21;;;;;;;9.57;4.40;;;;;;;16.82;85.77;101626.19;6347597;28;20201;-78
2021/08/12 02:03:29;;;;;;;17.30;4.40;;;;;;;16.79;86.05;101632.22;6346213;28;20209;-77
2021/08/12 02:06:37;;;;;;;6.93;4.38;;;;;;;16.74;86.40;101632.91;6347033;28;20220;-77
2021/08/12 02:09:44;;;;;;;11.02;4.50;;;;;;;16.79;85.97;101634.97;6379998;27;20497;-78
2021/08/12 02:12:49;;;;;;;12.73;4.20;;;;;;;16.78;86.17;101638.78;6346764;28;20228;-78
2021/08/12 02:15:57;;;;;;;5.45;4.10;;;;;;;16.75;86.42;101633.75;6364261;28;20204;-78
2021/08/12 02:19:06;;;;;;;9.68;4.47;;;;;;;16.67;86.78;101628.59;6348027;28;20182;-77
2021/08/12 02:22:19;;;;;;;9.52;4.38;;;;;;;16.68;86.51;101633.03;6347587;28;20249;-78
2021/08/12 02:25:31;;;;;;;7.40;5.22;;;;;;;16.70;85.85;101641.91;6365000;28;20190;-78
2021/08/12 02:28:36;;;;;;;6.25;4.57;;;;;;;16.72;85.30;101635.06;6380645;27;20199;-78
2021/08/12 02:31:44;;;;;;;4.43;4.07;;;;;;;16.72;86.08;101650.75;6380046;27;20265;-78
2021/08/12 02:34:51;;;;;;;8.35;4.20;;;;;;;16.57;86.00;101653.13;6365109;28;20210;-77
2021/08/12 02:37:58;;;;;;;6.95;4.28;;;;;;;16.72;85.24;101656.25;6364238;28;20186;-77
2021/08/12 02:41:04;;;;;;;5.63;4.38;;;;;;;16.67;85.70;101658.91;6346036;28;20229;-78
2021/08/12 02:44:09;;;;;;;4.78;4.38;;;;;;;16.64;85.52;101649.19;6346391;28;20202;-77
2021/08/12 02:47:23;;;;;;;8.35;4.88;;;;;;;16.60;86.01;101647.16;6346587;28;20186;-77
2021/08/12 02:50:28;;;;;;;8.80;4.30;;;;;;;16.58;85.83;101649.31;6345905;28;20223;-77
2021/08/12 02:53:35;;;;;;;4.40;4.07;;;;;;;16.61;86.07;101651.59;6345790;28;20217;-78
2021/08/12 02:56:42;;;;;;;4.75;4.32;;;;;;;16.56;85.70;101643.22;6345627;28;20238;-78
2021/08/12 02:59:48;;;;;;;10.25;4.13;;;;;;;16.55;86.09;101645.13;6346460;28;20265;-78
2021/08/12 03:02:53;;;;;;;7.80;4.65;;;;;;;16.53;86.11;101649.19;6364948;28;20186;-78
2021/08/12 03:05:59;;;;;;;9.40;4.57;;;;;;;16.49;86.51;101645.16;6364498;28;20182;-78
2021/08/12 03:09:06;;;;;;;6.45;5.05;;;;;;;16.49;86.73;101650.69;6345766;28;20216;-78
2021/08/12 03:12:12;;;;;;;10.30;4.72;;;;;;;16.50;86.66;101652.38;6329591;28;20190;-78
2021/08/12 03:15:18;;;;;;;10.70;5.10;;;;;;;16.46;86.53;101656.69;6345808;28;20249;-78
2021/08/12 03:18:22;;;;;;;8.85;5.13;;;;;;;16.47;86.69;101647.34;6345161;28;20268;-78
2021/08/12 03:21:27;;;;;;;6.25;4.88;;;;;;;16.48;86.59;101649.03;6346035;28;20197;-78
2021/08/12 03:24:36;;;;;;;6.95;4.70;;;;;;;16.45;87.19;101649.50;6345620;28;20319;-77
2021/08/12 03:27:43;;;;;;;8.20;4.75;;;;;;;16.45;86.89;101646.75;6345865;28;20274;-78
2021/08/12 03:30:48;;;;;;;8.18;4.50;;;;;;;16.43;86.83;101640.63;6345117;28;20376;-78
2021/08/12 03:33:52;;;;;;;8.32;4.85;;;;;;;16.48;86.92;101649.88;6363424;28;20301;-78
2021/08/12 03:36:59;;;;;;;9.05;4.85;;;;;;;16.50;86.84;101649.63;6379680;28;20182;-77
2021/08/12 03:40:08;;;;;;;8.82;5.20;;;;;;;16.51;86.90;101654.06;6362699;28;20480;-78
2021/08/12 03:43:15;;;;;;;10.60;5.00;;;;;;;16.48;87.07;101654.53;6345456;28;20501;-78
2021/08/12 03:46:20;;;;;;;4.70;4.40;;;;;;;16.45;87.30;101661.34;6350713;28;20201;-78
2021/08/12 03:49:24;;;;;;;6.72;4.38;;;;;;;16.47;87.49;101664.69;6350826;28;20486;-78
2021/08/12 03:52:29;;;;;;;10.20;4.70;;;;;;;16.46;87.21;101664.94;6350538;28;20263;-78
2021/08/12 03:55:38;;;;;;;7.72;4.63;;;;;;;16.47;88.25;101658.34;6384095;27;20217;-78
2021/08/12 03:58:43;;;;;;;8.18;4.50;;;;;;;16.49;87.27;101661.69;6350669;28;20264;-77
2021/08/12 04:01:48;;;;;;;4.90;4.50;;;;;;;16.50;87.54;101663.38;6384495;27;20198;-78
2021/08/12 04:04:52;;;;;;;7.82;4.97;;;;;;;16.46;88.07;101665.75;6384233;27;20202;-78
2021/08/12 04:07:56;;;;;;;13.20;4.85;;;;;;;16.51;87.69;101660.38;6384452;27;20197;-78
2021/08/12 04:11:03;;;;;;;7.20;4.22;;;;;;;16.52;87.71;101678.63;6368374;28;20240;-78
2021/08/12 04:14:08;;;;;;;9.05;5.10;;;;;;;16.54;87.66;101659.09;6367911;28;20210;-78
2021/08/12 04:17:12;;;;;;;11.15;5.18;;;;;;;16.62;86.82;101661.53;6367961;28;20270;-78
2021/08/12 04:20:17;;;;;;;9.10;4.57;;;;;;;16.69;86.23;101665.03;6350452;28;20198;-78
2021/08/12 04:23:22;;;;;;;4.55;4.18;;;;;;;16.71;86.80;101671.13;6350087;28;20198;-78
2021/08/12 04:26:28;;;;;;;10.07;4.97;;;;;;;16.74;86.71;101673.44;6350709;28;20366;-78
2021/08/12 04:29:33;;;;;;;4.90;4.60;;;;;;;16.73;87.42;101671.72;6349517;28;20212;-78
2021/08/12 04:32:37;;;;;;;5.30;4.90;;;;;;;16.81;86.74;101674.16;6349540;28;20226;-78
2021/08/12 04:35:43;;;;;;;7.43;4.43;;;;;;;16.83;86.83;101685.75;6349961;28;20213;-78
2021/08/12 04:38:48;;;;;;;7.10;4.53;;;;;;;16.76;87.34;101685.03;6382882;27;20412;-77
2021/08/12 04:41:54;;;;;;;10.10;5.13;;;;;;;16.79;87.18;101679.88;6349610;28;20219;-78
2021/08/12 04:45:04;;;;;;;6.45;5.18;;;;;;;16.77;87.73;101675.69;6349825;28;20201;-78
2021/08/12 04:48:15;;;;;;;5.57;4.85;;;;;;;16.80;87.59;101689.00;6350508;28;20189;-78
2021/08/12 04:51:21;;;;;;;6.72;4.70;;;;;;;16.81;87.47;101682.41;6383829;27;20253;-78
2021/08/12 04:54:25;;;;;;;6.50;5.03;;;;;;;16.86;87.74;101674.28;6348545;28;20222;-78
2021/08/12 04:57:32;;;;;;;11.73;5.00;;;;;;;16.87;87.65;101686.97;6382053;27;20198;-77
2021/08/12 05:00:36;;;;;;;12.35;5.03;;;;;;;16.95;87.76;101689.38;6365001;28;20182;-77
2021/08/12 05:03:43;;;;;;;6.88;5.03;;;;;;;16.93;88.13;101691.53;6348539;28;20182;-77
2021/08/12 05:06:47;;;;;;;10.52;4.80;;;;;;;16.92;88.82;101685.16;6380953;27;20376;-77
2021/08/12 05:09:51;;;;;;;10.13;5.00;;;;;;;17.06;87.88;101680.28;6366457;28;20182;-77
2021/08/12 05:13:00;;;;;;;8.13;5.22;;;;;;;17.05;88.74;101677.75;6347561;28;20198;-78
2021/08/12 05:16:05;;;;;;;6.25;4.80;;;;;;;17.05;89.07;101675.81;6367312;28;20210;-78
2021/08/12 05:19:16;;;;;;;16.45;5.05;;;;;;;17.18;88.38;101683.84;6367421;28;20182;-78
2021/08/12 05:22:24;;;;;;;11.40;4.90;;;;;;;17.21;88.09;101677.88;6348305;28;20529;-78
2021/08/12 05:25:29;;;;;;;14.02;5.22;;;;;;;17.25;88.70;101683.75;6381825;27;20568;-78
2021/08/12 05:28:34;;;;;;;6.22;4.82;;;;;;;17.37;87.57;101688.19;6381205;27;20488;-77
2021/08/12 05:31:38;;;;;;;6.32;4.65;;;;;;;17.42;88.20;101684.69;6365750;28;20265;-77
2021/08/12 05:34:43;;;;;;;9.48;4.80;;;;;;;17.50;87.44;101682.41;6372571;27;20571;-78
2021/08/12 05:37:47;;;;;;;6.60;4.90;;;;;;;17.58;87.04;101683.13;6339232;28;20251;-78
2021/08/12 05:40:52;;;;;;;10.73;4.95;;;;;;;17.61;87.02;101678.00;6339368;28;20198;-78
2021/08/12 05:43:57;;;;;;;9.68;5.15;;;;;;;17.66;87.09;101682.78;6339846;28;20405;-78
2021/08/12 05:47:03;;;;;;;8.40;4.95;;;;;;;17.63;88.14;101691.53;6339158;28;20199;-78
2021/08/12 05:50:12;;;;;;;11.68;4.85;;;;;;;17.69;88.41;101696.09;6340862;28;20244;-78
2021/08/12 05:53:19;;;;;;;4.78;4.40;;;;;;;17.73;88.76;101700.03;6322653;28;20556;-78
2021/08/12 05:56:23;;;;;;;4.78;4.38;;;;;;;17.78;89.26;101705.66;6322757;28;20254;-78
2021/08/12 05:59:29;;;;;;;8.00;4.40;;;;;;;17.83;89.29;101697.47;6322921;28;20221;-78
2021/08/12 06:02:33;;;;;;;7.13;4.38;;;;;;;17.91;89.29;101699.84;6338894;28;20320;-78
2021/08/12 06:05:43;;;;;;;4.18;4.05;;;;;;;17.91;90.47;101710.91;6322042;28;20209;-78
2021/08/12 06:08:48;;;;;;;10.27;4.63;;;;;;;17.98;90.13;101712.44;6338318;28;20198;-78
2021/08/12 06:11:52;;;;;;;4.63;4.18;;;;;;;18.00;89.61;101703.94;6339396;28;20183;-78
2021/08/12 06:14:57;;;;;;;6.10;4.40;;;;;;;18.07;89.55;101710.13;6340365;28;20229;-78
2021/08/12 06:18:06;;;;;;;4.63;4.30;;;;;;;18.19;89.90;101713.69;6338600;28;20206;-78
2021/08/12 06:21:13;;;;;;;5.18;4.65;;;;;;;18.30;89.56;101704.53;6337865;28;20199;-78
2021/08/12 06:24:19;;;;;;;6.88;4.60;;;;;;;18.42;89.78;101708.06;6322368;28;20206;-78
2021/08/12 06:27:24;;;;;;;4.60;4.18;;;;;;;18.59;88.46;101697.91;6338579;28;20191;-78
2021/08/12 06:30:30;;;;;;;5.10;4.78;;;;;;;18.75;87.41;101701.78;6320455;28;20395;-76
2021/08/12 06:33:34;;;;;;;5.97;4.47;;;;;;;18.87;87.28;101699.78;6305703;28;20273;-76
2021/08/12 06:36:39;;;;;;;5.18;4.30;;;;;;;19.00;87.29;101706.91;6294066;28;20223;-76
2021/08/12 06:39:43;;;;;;;6.70;4.10;;;;;;;19.15;86.07;101707.16;6294756;28;20242;-76
2021/08/12 06:42:51;;;;;;;6.00;4.60;;;;;;;19.30;84.61;101701.84;6312056;28;20198;-76
2021/08/12 06:46:01;;;;;;;9.63;4.43;;;;;;;19.35;84.87;101690.84;6294088;28;20419;-76
2021/08/12 06:49:10;;;;;;;5.13;3.92;;;;;;;19.40;83.50;101701.19;6327910;28;20199;-76
2021/08/12 06:52:22;;;;;;;7.18;3.92;;;;;;;19.48;83.36;101700.75;6295215;28;20183;-76
2021/08/12 06:55:30;;;;;;;3.95;3.70;;;;;;;19.56;83.57;101706.69;6327319;28;20358;-79
2021/08/12 06:58:37;;;;;;;4.05;3.72;;;;;;;19.56;82.14;101703.09;6294266;28;20590;-76
2021/08/12 07:01:46;;;;;;;5.45;3.88;;;;;;;19.65;82.61;101696.84;6313092;28;20251;-78
2021/08/12 07:04:51;;;;;;;4.13;3.83;;;;;;;19.78;82.50;101690.94;6293457;28;20199;-77
2021/08/12 07:07:56;;;;;;;4.88;4.20;;;;;;;19.94;82.67;101703.88;6293572;28;20214;-77
2021/08/12 07:11:00;;;;;;;4.68;4.22;;;;;;;20.05;81.88;101693.75;6293898;28;20203;-77
2021/08/12 07:14:05;;;;;;;5.03;4.38;;;;;;;20.18;80.56;101693.38;6294020;28;20210;-77
2021/08/12 07:17:14;;;;;;;3.67;3.45;;;;;;;20.28;81.49;101695.44;6294530;28;20211;-77
2021/08/12 07:20:20;;;;;;;4.05;3.75;;;;;;;20.32;81.22;101686.31;6293828;28;20263;-77
2021/08/12 07:23:27;;;;;;;4.45;3.80;;;;;;;20.42;79.61;101691.13;6293785;28;20378;-76
2021/08/12 07:26:32;;;;;;;4.55;4.25;;;;;;;20.41;78.96;101695.03;6293230;28;20203;-77
2021/08/12 07:29:36;;;;;;;4.97;4.45;;;;;;;20.55;79.42;101701.81;6294120;28;20202;-77
2021/08/12 07:32:42;;;;;;;4.18;3.80;;;;;;;20.64;79.58;101700.25;6322719;28;20222;-76
2021/08/12 07:35:46;;;;;;;3.80;3.65;;;;;;;20.68;76.88;101695.84;6363815;28;20446;-78
2021/08/12 07:38:52;;;;;;;3.92;3.70;;;;;;;20.63;77.72;101693.00;6346600;28;20198;-78
2021/08/12 07:42:19;;;;;;;4.18;3.90;;;;;;;20.89;77.18;101694.91;6344392;28;20205;-77
2021/08/12 07:45:23;;;;;;;5.50;3.83;;;;;;;20.93;76.39;101703.56;6377836;28;20209;-76
2021/08/12 07:48:33;;;;;;;4.47;4.10;;;;;;;20.92;78.04;101697.16;6344728;28;20182;-77
2021/08/12 07:51:37;;;;;;;4.18;3.78;;;;;;;20.90;77.79;101704.91;6361141;28;20182;-77
2021/08/12 07:54:46;;;;;;;5.18;4.13;;;;;;;20.87;78.22;101716.53;6361459;28;20403;-75
2021/08/12 07:57:50;;;;;;;4.55;3.83;;;;;;;20.95;77.09;101718.84;6361682;28;20291;-76
2021/08/12 08:00:54;;;;;;;4.45;4.05;;;;;;;20.93;77.09;101715.47;6360867;28;20367;-76
2021/08/12 08:04:02;;;;;;;6.50;3.92;;;;;;;20.95;77.40;101706.91;6362124;28;20183;-77
2021/08/12 08:07:06;;;;;;;4.03;3.80;;;;;;;20.86;76.97;101714.84;6363325;28;20193;-77
2021/08/12 08:10:14;;;;;;;5.65;3.78;;;;;;;20.95;75.87;101718.84;6360996;28;20182;-76
2021/08/12 08:13:18;;;;;;;3.97;3.63;;;;;;;20.93;77.14;101721.00;6362093;28;20189;-75
2021/08/12 08:16:23;;;;;;;4.00;3.80;;;;;;;21.02;75.85;101713.88;6361169;28;20251;-76
2021/08/12 08:19:29;;;;;;;4.50;4.03;;;;;;;21.08;75.35;101712.84;6361409;28;20219;-77
2021/08/12 08:22:34;;;;;;;4.47;4.07;;;;;;;21.05;76.23;101707.81;6360524;28;20182;-78
2021/08/12 08:25:39;;;;;;;4.38;3.97;;;;;;;20.97;75.86;101722.19;6361939;28;20182;-78
2021/08/12 08:28:45;;;;;;;4.13;3.92;;;;;;;21.00;75.59;101713.31;6362489;28;20245;-77
2021/08/12 08:31:49;;;;;;;4.88;3.80;;;;;;;20.98;74.25;101723.81;6365577;28;20271;-79
2021/08/12 08:34:54;;;;;;;4.03;3.67;;;;;;;20.90;73.22;101716.00;6368049;28;20261;-77
2021/08/12 08:38:00;;;;;;;3.70;3.40;;;;;;;20.87;72.80;101722.09;6365681;28;20316;-75
2021/08/12 08:41:05;;;;;;;4.45;4.20;;;;;;;21.00;73.18;101713.31;6365051;28;20182;-76
2021/08/12 08:44:09;;;;;;;4.00;3.80;;;;;;;21.00;73.29;101721.66;6366499;28;20186;-76
2021/08/12 08:47:15;;;;;;;5.50;3.42;;;;;;;20.97;71.83;101727.72;6366175;28;20186;-75
2021/08/12 08:50:23;;;;;;;3.85;3.65;;;;;;;20.97;71.94;101733.28;6366364;28;20250;-76
2021/08/12 08:53:31;;;;;;;3.85;3.65;;;;;;;21.05;70.75;101731.94;6365400;28;20470;-75
2021/08/12 08:56:35;;;;;;;3.88;3.63;;;;;;;21.08;71.25;101729.50;6364728;28;20213;-76
2021/08/12 08:59:39;;;;;;;3.92;3.63;;;;;;;21.11;71.35;101728.97;6366314;28;20213;-77
2021/08/12 09:02:45;;;;;;;4.10;3.80;;;;;;;21.17;70.95;101732.63;6364650;28;20410;-77
2021/08/12 09:05:51;;;;;;;3.95;3.60;;;;;;;21.25;70.23;101734.06;6365870;28;20243;-76
2021/08/12 09:08:55;;;;;;;3.92;3.50;;;;;;;21.30;70.18;101736.88;6365421;28;20186;-76
2021/08/12 09:12:00;;;;;;;3.97;3.50;;;;;;;21.29;69.63;101740.78;6364572;28;20182;-76
2021/08/12 09:15:08;;;;;;;3.58;3.33;;;;;;;21.28;69.90;101739.94;6364764;28;20371;-76
2021/08/12 09:18:25;;;;;;;5.88;3.38;;;;;;;21.33;69.26;101742.75;6379756;27;20425;-76
2021/08/12 09:21:34;;;;;;;3.88;3.60;;;;;;;21.37;69.34;101748.59;6364245;28;20474;-76
2021/08/12 09:24:49;;;;;;;3.55;3.35;;;;;;;21.35;67.20;101742.47;6365353;28;20186;-77
2021/08/12 09:28:11;;;;;;;3.65;3.45;;;;;;;21.39;66.67;101747.22;6366387;28;20186;-77
2021/08/12 09:31:15;;;;;;;3.80;2.92;;;;;;;21.39;67.62;101747.22;6365115;28;20198;-76
2021/08/12 09:34:21;;;;;;;3.38;3.17;;;;;;;21.45;67.52;101736.97;6347928;28;20226;-77
2021/08/12 09:37:34;;;;;;;3.50;3.30;;;;;;;21.34;63.30;101743.59;6365302;28;20206;-75
2021/08/12 09:40:38;;;;;;;6.82;3.55;;;;;;;21.47;65.39;101745.91;6370601;28;20183;-77
2021/08/12 09:43:43;;;;;;;3.60;3.30;;;;;;;21.48;65.21;101739.22;6368258;28;20353;-77
2021/08/12 09:46:55;;;;;;;3.60;3.45;;;;;;;21.50;65.55;101742.56;6365231;28;20190;-77
2021/08/12 09:50:01;;;;;;;3.72;3.60;;;;;;;21.57;66.26;101743.19;6365719;28;20186;-77
2021/08/12 09:53:09;;;;;;;4.35;3.65;;;;;;;21.62;66.09;101746.00;6364719;28;20189;-78
2021/08/12 09:56:13;;;;;;;4.85;4.20;;;;;;;21.66;66.56;101736.84;6364710;28;20192;-77
2021/08/12 09:59:18;;;;;;;3.33;3.10;;;;;;;21.72;66.04;101746.06;6363181;28;20405;-76
2021/08/12 10:02:22;;;;;;;4.57;3.60;;;;;;;21.76;66.69;101742.47;6364561;28;20531;-77
2021/08/12 10:05:29;;;;;;;3.80;3.50;;;;;;;21.82;66.13;101754.44;6364389;28;20350;-77
2021/08/12 10:08:36;;;;;;;3.10;3.00;;;;;;;21.84;65.53;101755.00;6365527;28;20213;-77
2021/08/12 10:11:40;;;;;;;3.67;3.42;;;;;;;21.85;65.58;101740.03;6364955;28;20190;-78
2021/08/12 10:14:45;;;;;;;3.35;3.15;;;;;;;21.90;65.18;101747.56;6367616;28;20215;-77
2021/08/12 10:17:50;;;;;;;3.15;3.05;;;;;;;21.95;65.53;101754.00;6382654;27;20237;-79
2021/08/12 10:20:55;;;;;;;3.60;3.30;;;;;;;22.00;65.94;101754.00;6364639;28;20214;-77
2021/08/12 10:24:03;;;;;;;5.13;3.25;;;;;;;21.93;62.46;101742.28;6364966;28;20182;-77
2021/08/12 10:27:10;;;;;;;3.05;2.95;;;;;;;22.01;63.60;101744.56;6366505;28;20193;-79
2021/08/12 10:30:15;;;;;;;3.72;3.42;;;;;;;22.06;63.18;101752.91;6366177;28;20182;-79
2021/08/12 10:33:20;;;;;;;3.40;3.10;;;;;;;21.98;62.27;101756.19;6366130;28;20281;-78
2021/08/12 10:36:25;;;;;;;4.88;3.60;;;;;;;22.10;62.97;101759.63;6365305;28;20213;-79
2021/08/12 10:39:31;;;;;;;3.88;3.33;;;;;;;22.05;62.04;101761.53;6366290;28;20256;-81
2021/08/12 10:42:39;;;;;;;3.50;3.30;;;;;;;22.07;61.55;101760.16;6364246;28;20183;-76
2021/08/12 10:45:53;;;;;;;3.40;3.25;;;;;;;22.16;61.74;101752.94;6364328;28;20182;-79
2021/08/12 10:49:32;;;;;;;2.97;2.92;;;;;;;22.22;61.15;101757.44;6365044;28;20213;-80
2021/08/12 10:53:17;;;;;;;3.38;3.17;;;;;;;22.30;61.73;101759.69;6367497;28;20204;-79
2021/08/12 10:56:37;;;;;;;3.50;3.20;;;;;;;22.37;62.05;101760.25;6367067;28;20249;-78
2021/08/12 10:59:41;;;;;;;3.08;2.97;;;;;;;22.37;61.79;101753.84;6348372;28;20250;-77
2021/08/12 11:02:45;;;;;;;3.58;3.28;;;;;;;22.48;62.25;101754.72;6363809;28;20178;-77
2021/08/12 11:06:06;;;;;;;3.70;3.35;;;;;;;22.51;61.71;101765.31;6345258;28;20205;-76
2021/08/12 11:09:16;;;;;;;4.80;3.42;;;;;;;22.58;62.28;101751.97;6364007;28;20474;-80
2021/08/12 11:12:22;;;;;;;3.28;3.17;;;;;;;22.67;61.99;101762.34;6367549;28;20235;-80
2021/08/12 11:15:57;;;;;;;3.42;3.10;;;;;;;22.65;60.51;101752.59;6367100;28;20255;-79
2021/08/12 11:19:02;;;;;;;3.67;3.45;;;;;;;22.78;61.02;101749.25;6365132;28;20225;-77
2021/08/12 11:22:36;;;;;;;5.03;3.22;;;;;;;22.80;62.12;101741.50;6365420;28;20182;-77
2021/08/12 11:25:56;;;;;;;3.08;2.90;;;;;;;22.80;59.40;101741.50;6366571;28;20197;-79
2021/08/12 11:29:01;;;;;;;3.35;3.20;;;;;;;22.87;59.52;101742.03;6366311;28;20546;-79
2021/08/12 11:32:13;;;;;;;3.58;3.28;;;;;;;22.92;57.72;101744.81;6347271;28;20516;-79
2021/08/12 11:35:17;;;;;;;5.85;3.45;;;;;;;23.04;58.08;101737.03;6365343;28;20191;-78
2021/08/12 11:38:21;;;;;;;3.80;3.03;;;;;;;23.13;57.85;101740.09;6363894;28;20224;-78
2021/08/12 11:41:27;;;;;;;5.28;3.17;;;;;;;23.20;58.62;101718.38;6363823;28;20182;-78
2021/08/12 11:44:38;;;;;;;4.22;3.22;;;;;;;23.33;58.78;101718.66;6362506;28;20431;-78
2021/08/12 11:47:46;;;;;;;3.35;3.15;;;;;;;23.32;58.40;101705.84;6362895;28;20499;-76
2021/08/12 11:50:51;;;;;;;3.40;3.15;;;;;;;23.39;58.64;101717.56;6361517;28;20440;-76
2021/08/12 11:53:55;;;;;;;3.08;2.95;;;;;;;23.41;57.52;101715.34;6363708;28;20183;-77
2021/08/12 11:56:59;;;;;;;3.17;3.08;;;;;;;23.49;57.46;101723.13;6363007;28;20245;-77
2021/08/12 12:00:08;;;;;;;3.20;2.90;;;;;;;23.51;57.47;101720.88;6361526;28;20499;-76
2021/08/12 12:03:28;;;;;;;3.13;2.92;;;;;;;23.53;56.85;101732.56;6361542;28;20462;-77
2021/08/12 12:06:38;;;;;;;2.92;2.80;;;;;;;23.55;56.09;101715.56;6365319;28;20244;-78
2021/08/12 12:09:42;;;;;;;3.10;2.90;;;;;;;23.58;56.68;101732.56;6367088;28;20358;-77
2021/08/12 12:12:46;;;;;;;3.35;3.03;;;;;;;23.65;56.69;101735.88;6366286;28;20485;-77
2021/08/12 12:15:55;;;;;;;2.95;2.80;;;;;;;23.82;57.07;101745.88;6366591;28;20510;-77
2021/08/12 12:19:08;;;;;;;3.45;2.90;;;;;;;23.81;54.52;101744.19;6347762;28;20516;-77
2021/08/12 12:22:14;;;;;;;7.75;3.38;;;;;;;23.81;55.82;101742.25;6366156;28;20522;-77
2021/08/12 12:25:21;;;;;;;3.90;3.08;;;;;;;23.76;54.96;101744.19;6367591;28;20239;-78
2021/08/12 12:28:25;;;;;;;2.83;2.70;;;;;;;23.63;53.86;101738.13;6366966;28;20253;-78
2021/08/12 12:31:31;;;;;;;3.00;2.60;;;;;;;23.71;53.20;101744.22;6367602;27;20206;-78
2021/08/12 12:34:49;;;;;;;5.10;2.88;;;;;;;23.58;52.23;101743.69;6367411;28;20477;-77
2021/08/12 12:37:54;;;;;;;3.20;2.90;;;;;;;23.71;53.60;101747.00;6366839;28;20183;-77
2021/08/12 12:41:06;;;;;;;5.88;2.67;;;;;;;23.78;53.00;101748.38;6365820;28;20529;-77
2021/08/12 12:44:13;;;;;;;7.00;5.65;;;;;;;23.84;53.51;101749.19;6365767;28;20478;-77
2021/08/12 12:47:25;;;;;;;2.95;2.75;;;;;;;23.89;52.49;101743.59;6366395;28;20249;-77
2021/08/12 12:50:42;;;;;;;2.88;2.67;;;;;;;24.06;52.93;101733.78;6367192;28;20192;-77
2021/08/12 12:53:48;;;;;;;3.13;2.55;;;;;;;24.12;53.23;101740.19;6366197;28;20474;-78
2021/08/12 12:56:53;;;;;;;2.63;2.53;;;;;;;24.20;50.15;101714.53;6366561;28;20243;-78
2021/08/12 12:59:57;;;;;;;2.65;2.55;;;;;;;24.32;51.60;101709.44;6367322;28;20214;-78
2021/08/12 13:03:02;;;;;;;2.95;2.80;;;;;;;24.46;51.36;101721.63;6367120;28;20217;-77
2021/08/12 13:06:10;;;;;;;2.78;2.60;;;;;;;24.47;51.84;101712.16;6367101;28;20210;-78
2021/08/12 13:09:28;;;;;;;4.97;2.80;;;;;;;24.49;50.73;101721.06;6368000;28;20186;-78
2021/08/12 13:12:34;;;;;;;2.80;2.70;;;;;;;24.45;50.29;101702.38;6367414;28;20183;-78
2021/08/12 13:15:51;;;;;;;2.97;2.60;;;;;;;24.60;47.89;101705.91;6367710;28;20182;-78
2021/08/12 13:19:00;;;;;;;2.08;2.08;;;;;;;24.51;45.29;101702.06;6367999;28;20277;-79
2021/08/12 13:22:19;;;;;;;3.53;2.10;;;;;;;24.79;47.77;101695.75;6368140;28;20190;-78
2021/08/12 13:25:26;;;;;;;3.15;2.95;;;;;;;24.89;47.24;101715.22;6366626;28;20220;-77
2021/08/12 13:28:34;;;;;;;2.33;2.28;;;;;;;24.90;46.94;101704.88;6364602;28;20245;-77
2021/08/12 13:31:41;;;;;;;3.92;2.63;;;;;;;24.92;46.48;101707.38;6366347;28;20237;-77
2021/08/12 13:34:48;;;;;;;3.17;2.60;;;;;;;25.01;47.12;101711.22;6365664;28;20537;-78
2021/08/12 13:37:53;;;;;;;2.67;2.47;;;;;;;24.97;47.53;101718.50;6366005;28;20189;-76
2021/08/12 13:40:57;;;;;;;2.30;2.20;;;;;;;25.03;48.01;101700.59;6365126;28;20210;-78
2021/08/12 13:44:02;;;;;;;2.70;2.20;;;;;;;25.06;47.01;101708.38;6365085;28;20257;-78
2021/08/12 13:47:08;;;;;;;7.95;2.60;;;;;;;25.08;47.26;101709.75;6366227;28;20182;-77
2021/08/12 13:50:15;;;;;;;3.10;2.50;;;;;;;25.07;48.01;101715.63;6365666;28;20306;-80
2021/08/12 13:53:19;;;;;;;2.80;2.60;;;;;;;24.96;46.88;101708.47;6364255;28;20374;-77
2021/08/12 13:56:24;;;;;;;2.40;2.30;;;;;;;24.95;47.81;101712.38;6364538;28;20210;-77
2021/08/12 13:59:48;;;;;;;2.25;2.20;;;;;;;24.92;47.76;101713.78;6364361;28;20206;-77
2021/08/12 14:02:53;;;;;;;10.50;4.72;;;;;;;24.98;49.73;101714.59;6364460;28;20190;-77
2021/08/12 14:05:59;;;;;;;11.02;10.00;;;;;;;24.95;48.03;101710.44;6364570;28;20182;-77
2021/08/12 14:09:07;;;;;;;4.30;4.00;;;;;;;25.03;48.85;101715.38;6382643;27;20197;-80
2021/08/12 14:12:14;;;;;;;2.58;2.47;;;;;;;25.06;49.02;101703.63;6365624;28;20526;-78
2021/08/12 14:15:18;;;;;;;2.08;2.05;;;;;;;24.95;49.55;101704.00;6364561;28;20368;-78
2021/08/12 14:18:23;;;;;;;2.50;2.30;;;;;;;24.86;48.87;101710.19;6364293;28;20185;-77
2021/08/12 14:21:29;;;;;;;2.38;2.28;;;;;;;24.88;49.65;101707.94;6364320;28;20242;-79
2021/08/12 14:24:34;;;;;;;7.05;2.40;;;;;;;24.91;50.89;101711.31;6364151;28;20261;-78
2021/08/12 14:27:41;;;;;;;2.30;2.20;;;;;;;24.88;51.04;101707.94;6366329;28;20259;-78
2021/08/12 14:30:47;;;;;;;2.50;2.40;;;;;;;24.91;47.20;101688.97;6364341;28;20186;-76